createdAt,value
2018-07-12T00:01:30.146Z,15.70
2018-07-12T00:06:25.331Z,15.60
2018-07-12T00:08:52.770Z,15.60
2018-07-12T00:11:20.229Z,15.50
2018-07-12T00:13:47.656Z,15.40
2018-07-12T00:16:15.092Z,15.30
2018-07-12T00:18:42.562Z,15.20
2018-07-12T00:21:09.982Z,15.10
2018-07-12T00:23:37.439Z,15.00
2018-07-12T00:26:04.866Z,15.00
2018-07-12T00:28:32.326Z,15.00
2018-07-12T00:30:59.751Z,15.00
2018-07-12T00:33:27.213Z,15.00
2018-07-12T00:35:54.639Z,14.90
2018-07-12T00:38:22.119Z,14.90
2018-07-12T00:40:49.556Z,14.80
2018-07-12T00:43:17.068Z,14.70
2018-07-12T00:45:44.504Z,14.70
2018-07-12T00:48:11.976Z,14.60
2018-07-12T00:50:39.681Z,14.60
2018-07-12T00:53:07.159Z,14.50
2018-07-12T00:55:34.593Z,14.50
2018-07-12T00:58:02.100Z,14.50
2018-07-12T01:00:29.556Z,14.40
2018-07-12T01:02:56.990Z,14.30
2018-07-12T01:07:52.153Z,14.30
2018-07-12T01:10:19.611Z,14.30
2018-07-12T01:12:47.036Z,14.30
2018-07-12T01:15:14.503Z,14.20
2018-07-12T01:17:41.932Z,14.20
2018-07-12T01:20:09.404Z,14.20
2018-07-12T01:22:36.849Z,14.20
2018-07-12T01:25:04.325Z,14.20
2018-07-12T01:27:31.738Z,14.20
2018-07-12T01:29:59.173Z,14.10
2018-07-12T01:32:26.647Z,14.10
2018-07-12T01:34:54.086Z,14.10
2018-07-12T01:37:21.562Z,14.10
2018-07-12T01:39:48.986Z,14.00
2018-07-12T01:42:16.697Z,14.00
2018-07-12T01:44:44.146Z,13.90
2018-07-12T01:47:11.608Z,13.80
2018-07-12T01:49:39.042Z,13.80
2018-07-12T01:52:06.513Z,13.70
2018-07-12T01:54:33.948Z,13.70
2018-07-12T01:57:01.374Z,13.60
2018-07-12T01:59:28.853Z,13.50
2018-07-12T02:01:56.307Z,13.40
2018-07-12T02:04:23.788Z,13.40
2018-07-12T02:06:51.216Z,13.30
2018-07-12T02:09:18.648Z,13.20
2018-07-12T02:11:46.109Z,13.10
2018-07-12T02:14:13.575Z,13.10
2018-07-12T02:16:41.012Z,13.00
2018-07-12T02:19:08.483Z,13.00
2018-07-12T02:21:35.906Z,12.90
2018-07-12T02:24:03.370Z,12.90
2018-07-12T02:26:30.831Z,12.90
2018-07-12T02:28:58.251Z,12.80
2018-07-12T02:31:25.747Z,12.80
2018-07-12T02:33:53.244Z,12.70
2018-07-12T02:36:20.681Z,12.70
2018-07-12T02:38:48.150Z,12.60
2018-07-12T02:41:15.650Z,12.60
2018-07-12T02:43:43.078Z,12.60
2018-07-12T02:46:10.533Z,12.60
2018-07-12T02:48:37.959Z,12.60
2018-07-12T02:51:05.431Z,12.50
2018-07-12T02:53:32.904Z,12.50
2018-07-12T02:56:00.349Z,12.50
2018-07-12T02:58:27.821Z,12.40
2018-07-12T03:00:55.249Z,12.40
2018-07-12T03:08:18.138Z,12.30
2018-07-12T03:10:45.575Z,12.30
2018-07-12T03:13:13.064Z,12.30
2018-07-12T03:15:40.518Z,12.30
2018-07-12T03:18:07.992Z,12.30
2018-07-12T03:20:35.458Z,12.20
2018-07-12T03:23:02.878Z,12.20
2018-07-12T03:25:30.339Z,12.20
2018-07-12T03:27:57.760Z,12.20
2018-07-12T03:30:25.220Z,12.20
2018-07-12T03:32:52.754Z,12.20
2018-07-12T03:35:20.261Z,12.20
2018-07-12T03:37:47.792Z,12.20
2018-07-12T03:40:15.215Z,12.20
2018-07-12T03:42:42.695Z,12.20
2018-07-12T03:45:10.184Z,12.20
2018-07-12T03:47:37.616Z,12.20
2018-07-12T03:50:05.071Z,12.10
2018-07-12T03:52:32.499Z,12.10
2018-07-12T03:54:59.949Z,12.10
2018-07-12T03:57:27.596Z,12.10
2018-07-12T03:59:55.070Z,12.10
2018-07-12T04:02:22.511Z,12.10
2018-07-12T04:04:50.077Z,12.00
2018-07-12T04:07:17.561Z,12.00
2018-07-12T04:09:45.007Z,12.10
2018-07-12T04:12:12.468Z,12.00
2018-07-12T04:14:39.959Z,12.00
2018-07-12T04:17:07.406Z,12.00
2018-07-12T04:19:34.890Z,12.10
2018-07-12T04:22:02.327Z,12.10
2018-07-12T04:24:29.756Z,12.10
2018-07-12T04:26:57.216Z,12.20
2018-07-12T04:29:24.639Z,12.20
2018-07-12T04:31:52.119Z,12.30
2018-07-12T04:34:19.547Z,12.40
2018-07-12T04:36:46.966Z,12.50
2018-07-12T04:39:14.438Z,12.50
2018-07-12T04:41:41.900Z,12.60
2018-07-12T04:44:09.328Z,12.70
2018-07-12T04:46:36.744Z,12.80
2018-07-12T04:49:04.228Z,12.90
2018-07-12T04:51:31.691Z,12.90
2018-07-12T04:53:59.124Z,13.00
2018-07-12T04:56:26.606Z,13.10
2018-07-12T04:58:54.050Z,13.30
2018-07-12T05:01:21.472Z,13.50
2018-07-12T05:03:48.944Z,13.70
2018-07-12T05:06:16.375Z,13.80
2018-07-12T05:08:43.849Z,13.90
2018-07-12T05:11:11.300Z,14.10
2018-07-12T05:13:38.772Z,14.30
2018-07-12T05:16:06.237Z,14.40
2018-07-12T05:18:33.709Z,14.60
2018-07-12T05:21:01.217Z,14.80
2018-07-12T05:23:28.652Z,15.00
2018-07-12T05:25:56.121Z,15.20
2018-07-12T05:28:23.570Z,15.40
2018-07-12T05:30:51.043Z,16.00
2018-07-12T05:33:18.493Z,16.70
2018-07-12T05:35:47.190Z,17.30
2018-07-12T05:38:15.885Z,17.90
2018-07-12T05:40:44.613Z,18.40
2018-07-12T05:43:13.284Z,18.60
2018-07-12T05:45:42.001Z,18.90
2018-07-12T05:48:10.800Z,19.40
2018-07-12T05:50:43.656Z,19.70
2018-07-12T05:53:12.365Z,20.10
2018-07-12T05:55:41.077Z,20.40
2018-07-12T05:58:09.823Z,20.10
2018-07-12T06:00:38.518Z,19.90
2018-07-12T06:03:07.251Z,20.00
2018-07-12T06:05:35.911Z,20.00
2018-07-12T06:08:04.680Z,20.30
2018-07-12T06:10:33.335Z,21.00
2018-07-12T06:13:02.035Z,21.20
2018-07-12T06:17:59.034Z,21.40
2018-07-12T06:20:27.749Z,21.40
2018-07-12T06:22:56.436Z,21.20
2018-07-12T06:25:25.089Z,21.00
2018-07-12T06:27:53.900Z,21.60
2018-07-12T06:30:22.541Z,21.90
2018-07-12T06:35:19.582Z,21.80
2018-07-12T06:37:48.222Z,21.50
2018-07-12T06:40:16.905Z,21.10
2018-07-12T06:42:45.625Z,20.70
2018-07-12T06:45:14.259Z,20.60
2018-07-12T06:47:43.022Z,20.40
2018-07-12T06:50:11.660Z,20.20
2018-07-12T06:52:40.352Z,20.20
2018-07-12T06:55:09.021Z,20.50
2018-07-12T06:57:37.693Z,20.70
2018-07-12T07:00:06.311Z,21.10
2018-07-12T07:02:35.009Z,21.80
2018-07-12T07:05:03.710Z,22.30
2018-07-12T07:07:32.380Z,22.30
2018-07-12T07:10:01.057Z,22.40
2018-07-12T07:12:29.711Z,21.70
2018-07-12T07:14:58.352Z,22.40
2018-07-12T07:17:27.045Z,23.20
2018-07-12T07:19:55.828Z,24.10
2018-07-12T07:22:24.502Z,25.10
2018-07-12T07:24:53.215Z,25.80
2018-07-12T07:27:21.904Z,25.80
2018-07-12T07:29:50.591Z,25.80
2018-07-12T07:34:47.864Z,25.70
2018-07-12T07:37:17.002Z,25.60
2018-07-12T07:39:45.676Z,25.60
2018-07-12T07:42:14.360Z,25.80
2018-07-12T07:44:43.048Z,26.50
2018-07-12T07:47:11.889Z,26.80
2018-07-12T07:49:41.110Z,27.00
2018-07-12T07:52:09.928Z,27.60
2018-07-12T07:54:38.681Z,27.50
2018-07-12T07:57:08.130Z,28.00
2018-07-12T07:59:36.969Z,27.50
2018-07-12T08:02:05.692Z,27.50
2018-07-12T08:04:34.407Z,27.60
2018-07-12T08:07:03.157Z,27.70
2018-07-12T08:09:32.234Z,27.90
2018-07-12T08:12:00.954Z,27.60
2018-07-12T08:14:29.612Z,28.20
2018-07-12T08:16:58.344Z,28.50
2018-07-12T08:19:27.111Z,28.40
2018-07-12T08:22:04.007Z,28.30
2018-07-12T08:24:32.729Z,28.00
2018-07-12T08:27:01.482Z,28.30
2018-07-12T08:29:30.540Z,28.60
2018-07-12T08:31:59.291Z,28.40
2018-07-12T08:34:28.088Z,28.00
2018-07-12T08:36:56.848Z,28.20
2018-07-12T08:39:25.520Z,27.60
2018-07-12T08:41:54.312Z,27.30
2018-07-12T08:44:22.994Z,27.70
2018-07-12T08:46:51.701Z,27.40
2018-07-12T08:49:20.388Z,27.70
2018-07-12T08:51:49.090Z,28.30
2018-07-12T08:54:17.797Z,29.20
2018-07-12T08:56:46.526Z,30.00
2018-07-12T08:59:15.244Z,30.00
2018-07-12T09:01:43.950Z,29.70
2018-07-12T09:04:12.609Z,29.10
2018-07-12T09:06:41.319Z,29.00
2018-07-12T09:09:10.034Z,29.60
2018-07-12T09:11:38.795Z,30.00
2018-07-12T09:14:07.465Z,30.10
2018-07-12T09:16:36.121Z,30.10
2018-07-12T09:19:04.846Z,29.70
2018-07-12T09:21:33.620Z,30.60
2018-07-12T09:24:02.373Z,30.80
2018-07-12T09:26:31.041Z,30.70
2018-07-12T09:28:59.725Z,30.10
2018-07-12T09:31:31.175Z,30.10
2018-07-12T09:33:59.895Z,29.60
2018-07-12T09:36:28.620Z,28.70
2018-07-12T09:38:57.272Z,27.90
2018-07-12T09:41:26.062Z,27.20
2018-07-12T09:43:54.979Z,26.60
2018-07-12T09:46:23.666Z,26.10
2018-07-12T09:48:53.112Z,25.80
2018-07-12T09:51:21.829Z,25.40
2018-07-12T09:53:50.500Z,26.30
2018-07-12T09:56:19.253Z,27.30
2018-07-12T09:58:47.870Z,26.90
2018-07-12T10:01:21.864Z,26.60
2018-07-12T10:03:52.278Z,26.80
2018-07-12T10:06:26.871Z,27.90
2018-07-12T10:09:00.115Z,28.40
2018-07-12T10:11:34.078Z,27.80
2018-07-12T10:14:08.013Z,26.50
2018-07-12T10:16:42.111Z,25.90
2018-07-12T10:19:10.822Z,26.10
2018-07-12T10:21:39.456Z,26.90
2018-07-12T10:24:14.609Z,26.90
2018-07-12T10:26:43.319Z,26.20
2018-07-12T10:29:11.994Z,25.80
2018-07-12T10:31:40.684Z,25.20
2018-07-12T10:34:09.330Z,25.70
2018-07-12T10:36:38.008Z,26.30
2018-07-12T10:39:08.515Z,26.90
2018-07-12T10:41:37.248Z,27.40
2018-07-12T10:44:06.130Z,28.10
2018-07-12T10:46:34.882Z,28.40
2018-07-12T10:49:03.574Z,28.30
2018-07-12T10:51:35.246Z,28.20
2018-07-12T10:54:03.964Z,28.20
2018-07-12T10:56:32.668Z,28.20
2018-07-12T10:59:01.510Z,27.90
2018-07-12T11:01:30.171Z,27.90
2018-07-12T11:03:58.907Z,27.80
2018-07-12T11:06:27.612Z,27.80
2018-07-12T11:08:56.322Z,27.70
2018-07-12T11:11:25.130Z,27.20
2018-07-12T11:13:54.620Z,27.30
2018-07-12T11:16:23.296Z,27.30
2018-07-12T11:18:52.098Z,27.40
2018-07-12T11:21:20.868Z,27.10
2018-07-12T11:23:49.567Z,26.90
2018-07-12T11:26:18.209Z,26.90
2018-07-12T11:28:47.086Z,26.50
2018-07-12T11:31:15.774Z,26.60
2018-07-12T11:33:46.012Z,26.80
2018-07-12T11:36:14.819Z,26.80
2018-07-12T11:38:44.591Z,26.80
2018-07-12T11:41:14.112Z,26.50
2018-07-12T11:43:42.941Z,26.80
2018-07-12T11:46:12.890Z,26.60
2018-07-12T11:48:42.516Z,26.30
2018-07-12T11:51:11.220Z,26.10
2018-07-12T11:53:39.949Z,25.90
2018-07-12T11:56:08.796Z,25.80
2018-07-12T11:58:37.587Z,25.70
2018-07-12T12:01:06.521Z,25.70
2018-07-12T12:03:35.226Z,25.80
2018-07-12T12:06:03.885Z,25.80
2018-07-12T12:08:32.505Z,25.80
2018-07-12T12:11:01.240Z,26.20
2018-07-12T12:13:29.897Z,26.30
2018-07-12T12:15:58.621Z,26.30
2018-07-12T12:18:27.263Z,26.20
2018-07-12T12:20:55.995Z,26.50
2018-07-12T12:23:24.690Z,26.70
2018-07-12T12:25:53.475Z,26.60
2018-07-12T12:28:22.147Z,26.60
2018-07-12T12:30:50.840Z,26.60
2018-07-12T12:33:19.522Z,26.50
2018-07-12T12:35:48.204Z,26.40
2018-07-12T12:38:17.047Z,26.40
2018-07-12T12:40:45.720Z,26.30
2018-07-12T12:43:14.336Z,26.20
2018-07-12T12:45:43.030Z,26.30
2018-07-12T12:48:11.726Z,26.30
2018-07-12T12:50:41.039Z,26.40
2018-07-12T12:53:09.681Z,26.40
2018-07-12T12:55:38.383Z,26.60
2018-07-12T12:58:07.099Z,26.60
2018-07-12T13:00:35.815Z,26.40
2018-07-12T13:03:04.475Z,26.40
2018-07-12T13:05:33.169Z,26.30
2018-07-12T13:08:01.879Z,26.10
2018-07-12T13:10:30.590Z,26.10
2018-07-12T13:12:59.256Z,26.10
2018-07-12T13:15:27.930Z,26.20
2018-07-12T13:17:56.668Z,26.30
2018-07-12T13:25:22.064Z,26.40
2018-07-12T13:27:50.771Z,26.60
2018-07-12T13:30:19.763Z,26.40
2018-07-12T13:32:48.450Z,26.40
2018-07-12T13:35:17.203Z,26.70
2018-07-12T13:37:45.859Z,26.60
2018-07-12T13:40:14.526Z,26.70
2018-07-12T13:42:43.251Z,26.90
2018-07-12T13:45:11.925Z,27.00
2018-07-12T13:47:40.586Z,27.00
2018-07-12T13:50:09.368Z,27.30
2018-07-12T13:52:38.076Z,27.20
2018-07-12T13:55:06.761Z,27.30
2018-07-12T13:57:35.512Z,27.30
2018-07-12T14:00:04.711Z,27.20
2018-07-12T14:02:33.565Z,27.30
2018-07-12T14:05:02.450Z,27.50
2018-07-12T14:07:31.175Z,27.50
2018-07-12T14:09:59.953Z,27.60
2018-07-12T14:12:28.711Z,27.50
2018-07-12T14:14:57.728Z,27.40
2018-07-12T14:17:26.650Z,27.40
2018-07-12T14:19:55.687Z,27.40
2018-07-12T14:22:24.599Z,27.40
2018-07-12T14:24:53.479Z,27.60
2018-07-12T14:27:22.342Z,27.70
2018-07-12T14:29:51.138Z,27.70
2018-07-12T14:32:19.947Z,27.80
2018-07-12T14:34:48.859Z,28.00
2018-07-12T14:37:17.607Z,28.30
2018-07-12T14:39:46.424Z,28.20
2018-07-12T14:42:15.241Z,28.30
2018-07-12T14:44:44.122Z,28.50
2018-07-12T14:47:12.917Z,28.60
2018-07-12T14:49:41.659Z,28.40
2018-07-12T14:52:10.522Z,28.30
2018-07-12T14:54:39.279Z,28.20
2018-07-12T14:57:08.080Z,28.30
2018-07-12T14:59:40.297Z,28.40
2018-07-12T15:02:09.513Z,28.40
2018-07-12T15:04:38.505Z,28.20
2018-07-12T15:07:07.483Z,28.20
2018-07-12T15:09:36.502Z,28.40
2018-07-12T15:12:05.609Z,28.60
2018-07-12T15:14:34.707Z,28.50
2018-07-12T15:17:03.964Z,28.70
2018-07-12T15:19:32.648Z,28.70
2018-07-12T15:22:01.321Z,29.00
2018-07-12T15:24:29.983Z,29.00
2018-07-12T15:26:58.650Z,29.20
2018-07-12T15:29:27.358Z,29.20
2018-07-12T15:31:56.019Z,29.30
2018-07-12T15:34:24.690Z,29.70
2018-07-12T15:36:53.481Z,29.70
2018-07-12T15:39:22.133Z,29.70
2018-07-12T15:41:50.842Z,29.20
2018-07-12T15:44:19.470Z,29.10
2018-07-12T15:46:48.200Z,29.20
2018-07-12T15:49:16.885Z,29.50
2018-07-12T15:51:46.290Z,29.10
2018-07-12T15:54:15.118Z,29.00
2018-07-12T15:56:43.994Z,28.80
2018-07-12T15:59:12.796Z,28.80
2018-07-12T16:01:41.533Z,28.70
2018-07-12T16:04:10.191Z,28.30
2018-07-12T16:06:38.977Z,28.10
2018-07-12T16:09:08.950Z,28.20
2018-07-12T16:11:37.666Z,28.10
2018-07-12T16:14:06.385Z,28.10
2018-07-12T16:16:35.087Z,28.20
2018-07-12T16:19:03.820Z,28.00
2018-07-12T16:21:32.627Z,27.40
2018-07-12T16:24:01.315Z,27.10
2018-07-12T16:26:29.959Z,26.90
2018-07-12T16:28:58.718Z,26.60
2018-07-12T16:31:27.482Z,26.40
2018-07-12T16:33:56.179Z,26.30
2018-07-12T16:36:24.848Z,26.10
2018-07-12T16:38:53.634Z,25.90
2018-07-12T16:41:22.306Z,25.80
2018-07-12T16:43:51.077Z,25.70
2018-07-12T16:46:19.760Z,25.50
2018-07-12T16:48:48.921Z,25.40
2018-07-12T16:51:17.663Z,25.40
2018-07-12T16:53:46.340Z,25.20
2018-07-12T16:56:15.052Z,25.10
2018-07-12T16:58:43.751Z,25.00
2018-07-12T17:01:12.460Z,25.00
2018-07-12T17:03:41.138Z,25.00
2018-07-12T17:06:09.881Z,25.00
2018-07-12T17:08:38.532Z,25.10
2018-07-12T17:11:08.110Z,25.00
2018-07-12T17:13:36.853Z,24.90
2018-07-12T17:16:05.544Z,24.90
2018-07-12T17:18:34.290Z,24.80
2018-07-12T17:21:03.101Z,24.70
2018-07-12T17:23:32.033Z,24.70
2018-07-12T17:26:00.845Z,24.70
2018-07-12T17:28:29.596Z,24.70
2018-07-12T17:30:58.331Z,24.70
2018-07-12T17:33:27.122Z,24.80
2018-07-12T17:35:55.958Z,24.80
2018-07-12T17:38:24.682Z,24.90
2018-07-12T17:40:53.506Z,24.90
2018-07-12T17:43:22.187Z,24.70
2018-07-12T17:45:50.926Z,24.60
2018-07-12T17:48:19.603Z,24.40
2018-07-12T17:50:48.289Z,24.20
2018-07-12T17:53:16.968Z,24.00
2018-07-12T17:55:45.633Z,23.90
2018-07-12T17:58:14.386Z,23.70
2018-07-12T18:00:43.066Z,23.60
2018-07-12T18:03:11.757Z,23.40
2018-07-12T18:05:40.451Z,23.30
2018-07-12T18:08:09.174Z,23.20
2018-07-12T18:10:37.843Z,23.10
2018-07-12T18:13:06.590Z,23.00
2018-07-12T18:15:35.232Z,22.90
2018-07-12T18:18:03.941Z,22.80
2018-07-12T18:20:32.636Z,22.80
2018-07-12T18:23:01.373Z,22.60
2018-07-12T18:25:30.087Z,22.60
2018-07-12T18:27:58.796Z,22.50
2018-07-12T18:30:27.425Z,22.50
2018-07-12T18:32:56.277Z,22.40
2018-07-12T18:35:24.960Z,22.30
2018-07-12T18:37:53.749Z,22.20
2018-07-12T18:40:22.430Z,22.10
2018-07-12T18:42:51.114Z,21.90
2018-07-12T18:45:19.796Z,21.70
2018-07-12T18:47:49.718Z,21.60
2018-07-12T18:52:46.756Z,21.40
2018-07-12T18:55:15.425Z,21.30
2018-07-12T18:57:44.072Z,21.20
2018-07-12T19:00:12.742Z,21.10
2018-07-12T19:02:41.573Z,21.10
2018-07-12T19:05:10.217Z,21.10
2018-07-12T19:07:39.070Z,20.90
2018-07-12T19:10:07.866Z,20.90
2018-07-12T19:12:36.514Z,20.90
2018-07-12T19:15:05.582Z,20.90
2018-07-12T19:17:34.291Z,20.80
2018-07-12T19:20:03.023Z,20.80
2018-07-12T19:22:32.207Z,20.70
2018-07-12T19:25:00.922Z,20.60
2018-07-12T19:27:29.643Z,20.50
2018-07-12T19:29:58.292Z,20.50
2018-07-12T19:32:27.171Z,20.40
2018-07-12T19:34:55.990Z,20.40
2018-07-12T19:37:24.651Z,20.40
2018-07-12T19:39:53.497Z,20.30
2018-07-12T19:42:22.186Z,20.20
2018-07-12T19:44:51.655Z,20.20
2018-07-12T19:47:20.710Z,20.20
2018-07-12T19:49:49.815Z,20.20
2018-07-12T19:52:18.788Z,20.20
2018-07-12T19:54:47.486Z,20.20
2018-07-12T19:57:16.404Z,20.10
2018-07-12T19:59:45.667Z,20.10
2018-07-12T20:02:14.566Z,20.00
2018-07-12T20:04:43.828Z,20.00
2018-07-12T20:07:12.507Z,19.90
2018-07-12T20:09:41.320Z,19.90
2018-07-12T20:12:10.336Z,19.80
2018-07-12T20:14:39.564Z,19.80
2018-07-12T20:17:08.664Z,19.70
2018-07-12T20:19:37.781Z,19.70
2018-07-12T20:22:06.689Z,19.60
2018-07-12T20:24:35.711Z,19.60
2018-07-12T20:27:04.485Z,19.50
2018-07-12T20:29:34.910Z,19.50
2018-07-12T20:32:04.012Z,19.40
2018-07-12T20:34:32.906Z,19.40
2018-07-12T20:37:01.561Z,19.50
2018-07-12T20:41:58.651Z,19.50
2018-07-12T20:44:27.399Z,19.40
2018-07-12T20:46:56.185Z,19.40
2018-07-12T20:49:25.032Z,19.30
2018-07-12T20:51:53.840Z,19.20
2018-07-12T20:54:22.719Z,19.10
2018-07-12T20:56:51.528Z,19.10
2018-07-12T20:59:20.272Z,19.00
2018-07-12T21:01:49.237Z,19.00
2018-07-12T21:04:18.008Z,18.90
2018-07-12T21:06:46.989Z,18.80
2018-07-12T21:09:15.772Z,18.80
2018-07-12T21:11:44.761Z,18.80
2018-07-12T21:14:13.451Z,18.70
2018-07-12T21:16:42.130Z,18.60
2018-07-12T21:19:10.843Z,18.50
2018-07-12T21:21:39.809Z,18.50
2018-07-12T21:24:08.609Z,18.40
2018-07-12T21:26:38.185Z,18.40
2018-07-12T21:31:36.092Z,18.30
2018-07-12T21:34:05.233Z,18.20
2018-07-12T21:36:33.936Z,18.20
2018-07-12T21:39:02.861Z,18.10
2018-07-12T21:41:31.570Z,18.00
2018-07-12T21:44:00.207Z,18.00
2018-07-12T21:46:28.913Z,17.90
2018-07-12T21:48:57.610Z,17.80
2018-07-12T21:51:26.366Z,17.70
2018-07-12T21:53:55.124Z,17.60
2018-07-12T21:56:23.847Z,17.50
2018-07-12T21:58:52.566Z,17.40
2018-07-12T22:01:21.256Z,17.30
2018-07-12T22:03:50.006Z,17.10
2018-07-12T22:06:26.280Z,17.10
2018-07-12T22:08:55.042Z,17.00
2018-07-12T22:11:23.734Z,16.90
2018-07-12T22:13:52.471Z,16.80
2018-07-12T22:16:21.168Z,16.70
2018-07-12T22:18:49.881Z,16.60
2018-07-12T22:21:18.686Z,16.60
2018-07-12T22:23:47.356Z,16.50
2018-07-12T22:26:16.105Z,16.50
2018-07-12T22:28:44.759Z,16.40
2018-07-12T22:33:41.742Z,16.50
2018-07-12T22:36:10.478Z,16.60
2018-07-12T22:38:39.154Z,16.50
2018-07-12T22:41:07.865Z,16.50
2018-07-12T22:43:36.568Z,16.50
2018-07-12T22:46:05.312Z,16.50
2018-07-12T22:48:34.083Z,16.50
2018-07-12T22:51:02.706Z,16.50
2018-07-12T22:53:31.366Z,16.40
2018-07-12T22:56:00.103Z,16.40
2018-07-12T22:58:28.760Z,16.30
2018-07-12T23:00:57.462Z,16.30
2018-07-12T23:03:26.129Z,16.30
2018-07-12T23:05:54.865Z,16.30
2018-07-12T23:08:23.556Z,16.40
2018-07-12T23:10:52.278Z,16.30
2018-07-12T23:13:20.953Z,16.30
2018-07-12T23:15:49.676Z,16.20
2018-07-12T23:18:18.387Z,16.10
2018-07-12T23:20:47.189Z,16.10
2018-07-12T23:23:15.918Z,16.00
2018-07-12T23:25:44.568Z,15.90
2018-07-12T23:28:13.279Z,15.90
2018-07-12T23:30:42.619Z,15.80
2018-07-12T23:33:11.432Z,15.70
2018-07-12T23:35:40.087Z,15.60
2018-07-12T23:38:08.815Z,15.60
2018-07-12T23:40:37.593Z,15.50
2018-07-12T23:43:06.389Z,15.50
2018-07-12T23:45:35.102Z,15.40
2018-07-12T23:48:03.848Z,15.40
2018-07-12T23:50:32.542Z,15.30
2018-07-12T23:53:01.234Z,15.20
2018-07-12T23:55:29.947Z,15.20
2018-07-12T23:57:58.637Z,15.10
